sensor_id;sensor_type;location;lat;lon;timestamp;temperature;humidity
22069;DHT22;13887;57.196;-2.100;2023-06-22T00:00:36;18.00;69.00
22069;DHT22;13887;57.196;-2.100;2023-06-22T00:03:10;18.02;68.55
22069;DHT22;13887;57.196;-2.100;2023-06-22T00:05:47;18.02;68.94
22069;DHT22;13887;57.196;-2.100;2023-06-22T00:08:15;18.00;68.57
22069;DHT22;13887;57.196;-2.100;2023-06-22T00:10:49;17.98;68.60
22069;DHT22;13887;57.196;-2.100;2023-06-22T00:13:19;17.98;68.59
22069;DHT22;13887;57.196;-2.100;2023-06-22T00:15:49;17.97;68.83
22069;DHT22;13887;57.196;-2.100;2023-06-22T00:18:20;17.97;68.71
22069;DHT22;13887;57.196;-2.100;2023-06-22T00:20:48;17.94;68.43
22069;DHT22;13887;57.196;-2.100;2023-06-22T00:23:16;17.94;68.57
22069;DHT22;13887;57.196;-2.100;2023-06-22T00:25:44;17.94;68.57
22069;DHT22;13887;57.196;-2.100;2023-06-22T00:28:17;17.93;68.49
22069;DHT22;13887;57.196;-2.100;2023-06-22T00:30:49;17.91;68.49
22069;DHT22;13887;57.196;-2.100;2023-06-22T00:33:27;17.89;68.71
22069;DHT22;13887;57.196;-2.100;2023-06-22T00:35:55;17.90;68.84
22069;DHT22;13887;57.196;-2.100;2023-06-22T00:38:26;17.89;68.77
22069;DHT22;13887;57.196;-2.100;2023-06-22T00:40:53;17.89;68.90
22069;DHT22;13887;57.196;-2.100;2023-06-22T00:43:23;17.87;68.79
22069;DHT22;13887;57.196;-2.100;2023-06-22T00:45:51;17.87;68.71
22069;DHT22;13887;57.196;-2.100;2023-06-22T00:48:23;17.84;68.81
22069;DHT22;13887;57.196;-2.100;2023-06-22T00:51:02;17.85;68.76
22069;DHT22;13887;57.196;-2.100;2023-06-22T00:53:34;17.84;68.41
22069;DHT22;13887;57.196;-2.100;2023-06-22T00:56:05;17.83;68.48
22069;DHT22;13887;57.196;-2.100;2023-06-22T00:58:38;17.82;68.59
22069;DHT22;13887;57.196;-2.100;2023-06-22T01:01:14;17.80;68.45
22069;DHT22;13887;57.196;-2.100;2023-06-22T01:03:47;17.80;68.19
22069;DHT22;13887;57.196;-2.100;2023-06-22T01:06:27;17.80;68.17
22069;DHT22;13887;57.196;-2.100;2023-06-22T01:09:02;17.78;68.10
22069;DHT22;13887;57.196;-2.100;2023-06-22T01:11:40;17.77;68.00
22069;DHT22;13887;57.196;-2.100;2023-06-22T01:14:14;17.76;68.19
22069;DHT22;13887;57.196;-2.100;2023-06-22T01:16:45;17.73;67.87
22069;DHT22;13887;57.196;-2.100;2023-06-22T01:19:26;17.74;67.83
22069;DHT22;13887;57.196;-2.100;2023-06-22T01:22:05;17.72;68.01
22069;DHT22;13887;57.196;-2.100;2023-06-22T01:27:47;17.70;68.11
22069;DHT22;13887;57.196;-2.100;2023-06-22T01:30:24;17.69;68.11
22069;DHT22;13887;57.196;-2.100;2023-06-22T01:32:58;17.70;68.04
22069;DHT22;13887;57.196;-2.100;2023-06-22T01:35:33;17.72;68.20
22069;DHT22;13887;57.196;-2.100;2023-06-22T01:38:04;17.69;68.26
22069;DHT22;13887;57.196;-2.100;2023-06-22T01:40:39;17.68;68.39
22069;DHT22;13887;57.196;-2.100;2023-06-22T01:43:09;17.67;68.27
22069;DHT22;13887;57.196;-2.100;2023-06-22T01:45:39;17.68;68.26
22069;DHT22;13887;57.196;-2.100;2023-06-22T01:48:10;17.66;68.54
22069;DHT22;13887;57.196;-2.100;2023-06-22T01:50:38;17.67;68.33
22069;DHT22;13887;57.196;-2.100;2023-06-22T01:53:07;17.67;68.31
22069;DHT22;13887;57.196;-2.100;2023-06-22T01:55:40;17.65;68.57
22069;DHT22;13887;57.196;-2.100;2023-06-22T01:58:13;17.64;68.20
22069;DHT22;13887;57.196;-2.100;2023-06-22T02:00:45;17.60;68.24
22069;DHT22;13887;57.196;-2.100;2023-06-22T02:03:22;17.58;68.07
22069;DHT22;13887;57.196;-2.100;2023-06-22T02:05:58;17.59;68.34
22069;DHT22;13887;57.196;-2.100;2023-06-22T02:08:32;17.58;68.20
22069;DHT22;13887;57.196;-2.100;2023-06-22T02:11:03;17.59;68.23
22069;DHT22;13887;57.196;-2.100;2023-06-22T02:13:37;17.58;68.06
22069;DHT22;13887;57.196;-2.100;2023-06-22T02:16:05;17.56;68.10
22069;DHT22;13887;57.196;-2.100;2023-06-22T02:18:33;17.54;68.10
22069;DHT22;13887;57.196;-2.100;2023-06-22T02:21:06;17.54;67.84
22069;DHT22;13887;57.196;-2.100;2023-06-22T02:23:40;17.53;67.80
22069;DHT22;13887;57.196;-2.100;2023-06-22T02:26:26;17.52;67.91
22069;DHT22;13887;57.196;-2.100;2023-06-22T02:28:57;17.51;68.07
22069;DHT22;13887;57.196;-2.100;2023-06-22T02:31:32;17.52;68.00
22069;DHT22;13887;57.196;-2.100;2023-06-22T02:34:02;17.51;67.89
22069;DHT22;13887;57.196;-2.100;2023-06-22T02:36:32;17.48;68.11
22069;DHT22;13887;57.196;-2.100;2023-06-22T02:39:08;17.47;67.75
22069;DHT22;13887;57.196;-2.100;2023-06-22T02:41:37;17.46;67.82
22069;DHT22;13887;57.196;-2.100;2023-06-22T02:44:08;17.44;67.36
22069;DHT22;13887;57.196;-2.100;2023-06-22T02:46:36;17.41;67.44
22069;DHT22;13887;57.196;-2.100;2023-06-22T02:49:05;17.43;67.72
22069;DHT22;13887;57.196;-2.100;2023-06-22T02:51:34;17.44;67.69
22069;DHT22;13887;57.196;-2.100;2023-06-22T02:54:02;17.44;67.73
22069;DHT22;13887;57.196;-2.100;2023-06-22T02:56:38;17.45;67.88
22069;DHT22;13887;57.196;-2.100;2023-06-22T02:59:08;17.44;67.92
22069;DHT22;13887;57.196;-2.100;2023-06-22T03:01:38;17.44;67.78
22069;DHT22;13887;57.196;-2.100;2023-06-22T03:04:24;17.43;68.31
22069;DHT22;13887;57.196;-2.100;2023-06-22T03:06:54;17.40;68.14
22069;DHT22;13887;57.196;-2.100;2023-06-22T03:09:24;17.39;68.23
22069;DHT22;13887;57.196;-2.100;2023-06-22T03:11:56;17.35;68.00
22069;DHT22;13887;57.196;-2.100;2023-06-22T03:14:37;17.34;68.13
22069;DHT22;13887;57.196;-2.100;2023-06-22T03:17:08;17.32;68.19
22069;DHT22;13887;57.196;-2.100;2023-06-22T03:19:39;17.30;68.15
22069;DHT22;13887;57.196;-2.100;2023-06-22T03:22:09;17.33;68.26
22069;DHT22;13887;57.196;-2.100;2023-06-22T03:24:41;17.34;68.13
22069;DHT22;13887;57.196;-2.100;2023-06-22T03:27:08;17.32;68.30
22069;DHT22;13887;57.196;-2.100;2023-06-22T03:29:41;17.32;68.26
22069;DHT22;13887;57.196;-2.100;2023-06-22T03:32:14;17.32;68.44
22069;DHT22;13887;57.196;-2.100;2023-06-22T03:34:44;17.32;68.42
22069;DHT22;13887;57.196;-2.100;2023-06-22T03:37:16;17.29;68.28
22069;DHT22;13887;57.196;-2.100;2023-06-22T03:39:43;17.29;68.43
22069;DHT22;13887;57.196;-2.100;2023-06-22T03:42:11;17.29;68.11
22069;DHT22;13887;57.196;-2.100;2023-06-22T03:44:39;17.25;68.16
22069;DHT22;13887;57.196;-2.100;2023-06-22T03:47:07;17.24;67.94
22069;DHT22;13887;57.196;-2.100;2023-06-22T03:49:39;17.24;68.46
22069;DHT22;13887;57.196;-2.100;2023-06-22T03:52:07;17.23;68.04
22069;DHT22;13887;57.196;-2.100;2023-06-22T03:54:37;17.23;68.18
22069;DHT22;13887;57.196;-2.100;2023-06-22T03:57:10;17.22;68.26
22069;DHT22;13887;57.196;-2.100;2023-06-22T03:59:38;17.22;68.11
22069;DHT22;13887;57.196;-2.100;2023-06-22T04:02:08;17.20;67.92
22069;DHT22;13887;57.196;-2.100;2023-06-22T04:04:36;17.16;67.14
22069;DHT22;13887;57.196;-2.100;2023-06-22T04:07:08;17.17;67.39
22069;DHT22;13887;57.196;-2.100;2023-06-22T04:09:41;17.17;67.38
22069;DHT22;13887;57.196;-2.100;2023-06-22T04:12:10;17.16;67.10
22069;DHT22;13887;57.196;-2.100;2023-06-22T04:14:40;17.15;67.25
22069;DHT22;13887;57.196;-2.100;2023-06-22T04:17:12;17.14;67.30
22069;DHT22;13887;57.196;-2.100;2023-06-22T04:19:42;17.15;67.01
22069;DHT22;13887;57.196;-2.100;2023-06-22T04:22:13;17.15;67.21
22069;DHT22;13887;57.196;-2.100;2023-06-22T04:24:41;17.13;66.83
22069;DHT22;13887;57.196;-2.100;2023-06-22T04:27:11;17.10;67.01
22069;DHT22;13887;57.196;-2.100;2023-06-22T04:29:46;17.10;66.69
22069;DHT22;13887;57.196;-2.100;2023-06-22T04:32:20;17.10;66.96
22069;DHT22;13887;57.196;-2.100;2023-06-22T04:34:49;17.08;67.04
22069;DHT22;13887;57.196;-2.100;2023-06-22T04:37:22;17.08;66.78
22069;DHT22;13887;57.196;-2.100;2023-06-22T04:39:56;17.08;66.85
22069;DHT22;13887;57.196;-2.100;2023-06-22T04:42:27;17.08;66.89
22069;DHT22;13887;57.196;-2.100;2023-06-22T04:44:57;17.06;66.81
22069;DHT22;13887;57.196;-2.100;2023-06-22T04:47:28;17.05;66.79
22069;DHT22;13887;57.196;-2.100;2023-06-22T04:49:57;17.04;66.62
22069;DHT22;13887;57.196;-2.100;2023-06-22T04:52:27;17.02;66.91
22069;DHT22;13887;57.196;-2.100;2023-06-22T04:54:57;17.03;66.65
22069;DHT22;13887;57.196;-2.100;2023-06-22T04:57:27;17.01;66.52
22069;DHT22;13887;57.196;-2.100;2023-06-22T05:00:01;16.99;66.47
22069;DHT22;13887;57.196;-2.100;2023-06-22T05:02:37;16.98;66.78
22069;DHT22;13887;57.196;-2.100;2023-06-22T05:05:06;16.98;66.49
22069;DHT22;13887;57.196;-2.100;2023-06-22T05:07:34;17.00;66.51
22069;DHT22;13887;57.196;-2.100;2023-06-22T05:10:05;16.99;66.40
22069;DHT22;13887;57.196;-2.100;2023-06-22T05:12:32;16.99;66.67
22069;DHT22;13887;57.196;-2.100;2023-06-22T05:15:00;16.95;66.12
22069;DHT22;13887;57.196;-2.100;2023-06-22T05:17:28;16.95;66.53
22069;DHT22;13887;57.196;-2.100;2023-06-22T05:19:59;16.95;66.37
22069;DHT22;13887;57.196;-2.100;2023-06-22T05:22:33;16.95;66.40
22069;DHT22;13887;57.196;-2.100;2023-06-22T05:25:01;16.91;66.07
22069;DHT22;13887;57.196;-2.100;2023-06-22T05:27:35;16.88;66.07
22069;DHT22;13887;57.196;-2.100;2023-06-22T05:30:07;16.92;65.83
22069;DHT22;13887;57.196;-2.100;2023-06-22T05:32:37;16.92;66.07
22069;DHT22;13887;57.196;-2.100;2023-06-22T05:35:08;16.93;65.88
22069;DHT22;13887;57.196;-2.100;2023-06-22T05:37:43;16.98;66.01
22069;DHT22;13887;57.196;-2.100;2023-06-22T05:40:21;16.94;66.02
22069;DHT22;13887;57.196;-2.100;2023-06-22T05:42:49;16.95;65.97
22069;DHT22;13887;57.196;-2.100;2023-06-22T05:45:16;16.93;65.85
22069;DHT22;13887;57.196;-2.100;2023-06-22T05:47:54;16.96;66.15
22069;DHT22;13887;57.196;-2.100;2023-06-22T05:50:31;16.99;66.20
22069;DHT22;13887;57.196;-2.100;2023-06-22T05:53:06;17.01;65.80
22069;DHT22;13887;57.196;-2.100;2023-06-22T05:55:33;17.03;65.71
22069;DHT22;13887;57.196;-2.100;2023-06-22T05:58:04;17.03;65.94
22069;DHT22;13887;57.196;-2.100;2023-06-22T06:00:31;17.05;66.22
22069;DHT22;13887;57.196;-2.100;2023-06-22T06:03:05;17.09;65.88
22069;DHT22;13887;57.196;-2.100;2023-06-22T06:05:36;17.08;65.47
22069;DHT22;13887;57.196;-2.100;2023-06-22T06:08:08;17.03;65.87
22069;DHT22;13887;57.196;-2.100;2023-06-22T06:10:37;16.96;65.53
22069;DHT22;13887;57.196;-2.100;2023-06-22T06:13:08;16.94;65.86
22069;DHT22;13887;57.196;-2.100;2023-06-22T06:15:41;16.95;65.85
22069;DHT22;13887;57.196;-2.100;2023-06-22T06:18:11;16.95;65.94
22069;DHT22;13887;57.196;-2.100;2023-06-22T06:20:44;16.96;65.75
22069;DHT22;13887;57.196;-2.100;2023-06-22T06:23:19;16.99;65.97
22069;DHT22;13887;57.196;-2.100;2023-06-22T06:25:50;17.03;65.98
22069;DHT22;13887;57.196;-2.100;2023-06-22T06:28:18;17.07;66.07
22069;DHT22;13887;57.196;-2.100;2023-06-22T06:30:48;17.09;65.97
22069;DHT22;13887;57.196;-2.100;2023-06-22T06:33:19;17.08;66.07
22069;DHT22;13887;57.196;-2.100;2023-06-22T06:35:53;17.08;66.08
22069;DHT22;13887;57.196;-2.100;2023-06-22T06:38:22;17.11;66.20
22069;DHT22;13887;57.196;-2.100;2023-06-22T06:40:56;17.10;65.88
22069;DHT22;13887;57.196;-2.100;2023-06-22T06:43:25;17.15;66.09
22069;DHT22;13887;57.196;-2.100;2023-06-22T06:45:55;17.15;66.14
22069;DHT22;13887;57.196;-2.100;2023-06-22T06:48:22;17.17;65.85
22069;DHT22;13887;57.196;-2.100;2023-06-22T06:50:58;17.17;66.14
22069;DHT22;13887;57.196;-2.100;2023-06-22T06:53:28;17.18;65.54
22069;DHT22;13887;57.196;-2.100;2023-06-22T06:55:56;17.17;65.80
22069;DHT22;13887;57.196;-2.100;2023-06-22T06:58:23;17.18;65.89
22069;DHT22;13887;57.196;-2.100;2023-06-22T07:00:56;17.20;65.89
22069;DHT22;13887;57.196;-2.100;2023-06-22T07:03:24;17.18;66.20
22069;DHT22;13887;57.196;-2.100;2023-06-22T07:05:51;17.20;65.87
22069;DHT22;13887;57.196;-2.100;2023-06-22T07:08:20;17.21;65.74
22069;DHT22;13887;57.196;-2.100;2023-06-22T07:10:47;17.22;65.64
22069;DHT22;13887;57.196;-2.100;2023-06-22T07:13:15;17.22;65.53
22069;DHT22;13887;57.196;-2.100;2023-06-22T07:15:46;17.23;65.56
22069;DHT22;13887;57.196;-2.100;2023-06-22T07:18:14;17.25;65.58
22069;DHT22;13887;57.196;-2.100;2023-06-22T07:20:46;17.22;65.89
22069;DHT22;13887;57.196;-2.100;2023-06-22T07:23:20;17.24;65.89
22069;DHT22;13887;57.196;-2.100;2023-06-22T07:25:49;17.22;64.98
22069;DHT22;13887;57.196;-2.100;2023-06-22T07:28:21;17.20;64.46
22069;DHT22;13887;57.196;-2.100;2023-06-22T07:30:51;17.19;64.77
22069;DHT22;13887;57.196;-2.100;2023-06-22T07:33:22;17.16;64.84
22069;DHT22;13887;57.196;-2.100;2023-06-22T07:35:55;17.19;65.02
22069;DHT22;13887;57.196;-2.100;2023-06-22T07:38:23;17.19;64.82
22069;DHT22;13887;57.196;-2.100;2023-06-22T07:40:53;17.18;64.77
22069;DHT22;13887;57.196;-2.100;2023-06-22T07:43:32;17.18;64.66
22069;DHT22;13887;57.196;-2.100;2023-06-22T07:46:01;17.14;63.95
22069;DHT22;13887;57.196;-2.100;2023-06-22T07:48:30;17.11;64.33
22069;DHT22;13887;57.196;-2.100;2023-06-22T07:51:01;17.15;64.40
22069;DHT22;13887;57.196;-2.100;2023-06-22T07:53:36;17.17;64.40
22069;DHT22;13887;57.196;-2.100;2023-06-22T07:56:04;17.20;64.79
22069;DHT22;13887;57.196;-2.100;2023-06-22T07:58:38;17.20;64.82
22069;DHT22;13887;57.196;-2.100;2023-06-22T08:01:05;17.22;64.79
22069;DHT22;13887;57.196;-2.100;2023-06-22T08:03:36;17.22;64.80
22069;DHT22;13887;57.196;-2.100;2023-06-22T08:06:07;17.21;65.23
22069;DHT22;13887;57.196;-2.100;2023-06-22T08:08:40;17.26;65.08
22069;DHT22;13887;57.196;-2.100;2023-06-22T08:11:12;17.26;65.17
22069;DHT22;13887;57.196;-2.100;2023-06-22T08:13:41;17.23;65.39
22069;DHT22;13887;57.196;-2.100;2023-06-22T08:16:11;17.24;65.32
22069;DHT22;13887;57.196;-2.100;2023-06-22T08:18:42;17.24;65.23
22069;DHT22;13887;57.196;-2.100;2023-06-22T08:21:10;17.23;65.11
22069;DHT22;13887;57.196;-2.100;2023-06-22T08:23:40;17.24;65.29
22069;DHT22;13887;57.196;-2.100;2023-06-22T08:26:13;17.22;64.70
22069;DHT22;13887;57.196;-2.100;2023-06-22T08:28:41;17.23;64.83
22069;DHT22;13887;57.196;-2.100;2023-06-22T08:31:11;17.26;64.72
22069;DHT22;13887;57.196;-2.100;2023-06-22T08:33:43;17.28;64.92
22069;DHT22;13887;57.196;-2.100;2023-06-22T08:36:16;17.30;64.66
22069;DHT22;13887;57.196;-2.100;2023-06-22T08:38:45;17.29;64.67
22069;DHT22;13887;57.196;-2.100;2023-06-22T08:41:17;17.28;63.45
22069;DHT22;13887;57.196;-2.100;2023-06-22T08:43:47;17.25;63.92
22069;DHT22;13887;57.196;-2.100;2023-06-22T08:46:15;17.26;64.00
22069;DHT22;13887;57.196;-2.100;2023-06-22T08:48:50;17.26;63.37
22069;DHT22;13887;57.196;-2.100;2023-06-22T08:51:17;17.23;63.34
22069;DHT22;13887;57.196;-2.100;2023-06-22T08:54:03;17.29;63.46
22069;DHT22;13887;57.196;-2.100;2023-06-22T08:56:32;17.30;63.64
22069;DHT22;13887;57.196;-2.100;2023-06-22T08:59:00;17.31;63.48
22069;DHT22;13887;57.196;-2.100;2023-06-22T09:01:34;17.33;63.77
22069;DHT22;13887;57.196;-2.100;2023-06-22T09:04:01;17.35;63.89
22069;DHT22;13887;57.196;-2.100;2023-06-22T09:06:29;17.32;63.66
22069;DHT22;13887;57.196;-2.100;2023-06-22T09:09:01;17.33;63.98
22069;DHT22;13887;57.196;-2.100;2023-06-22T09:11:29;17.35;64.15
22069;DHT22;13887;57.196;-2.100;2023-06-22T09:13:56;17.35;64.34
22069;DHT22;13887;57.196;-2.100;2023-06-22T09:16:27;17.38;63.98
22069;DHT22;13887;57.196;-2.100;2023-06-22T09:19:00;17.35;63.66
22069;DHT22;13887;57.196;-2.100;2023-06-22T09:21:34;17.35;63.57
22069;DHT22;13887;57.196;-2.100;2023-06-22T09:24:13;17.36;63.69
22069;DHT22;13887;57.196;-2.100;2023-06-22T09:26:43;17.41;63.92
22069;DHT22;13887;57.196;-2.100;2023-06-22T09:29:12;17.41;64.04
22069;DHT22;13887;57.196;-2.100;2023-06-22T09:31:41;17.40;63.62
22069;DHT22;13887;57.196;-2.100;2023-06-22T09:34:11;17.40;63.54
22069;DHT22;13887;57.196;-2.100;2023-06-22T09:36:44;17.41;63.57
22069;DHT22;13887;57.196;-2.100;2023-06-22T09:39:16;17.44;63.70
22069;DHT22;13887;57.196;-2.100;2023-06-22T09:41:44;17.43;64.11
22069;DHT22;13887;57.196;-2.100;2023-06-22T09:44:14;17.45;64.01
22069;DHT22;13887;57.196;-2.100;2023-06-22T09:46:44;17.47;64.40
22069;DHT22;13887;57.196;-2.100;2023-06-22T09:49:12;17.47;64.21
22069;DHT22;13887;57.196;-2.100;2023-06-22T09:51:39;17.49;64.25
22069;DHT22;13887;57.196;-2.100;2023-06-22T09:54:07;17.52;64.37
22069;DHT22;13887;57.196;-2.100;2023-06-22T09:56:48;17.53;64.36
22069;DHT22;13887;57.196;-2.100;2023-06-22T09:59:15;17.52;64.45
22069;DHT22;13887;57.196;-2.100;2023-06-22T10:01:45;17.54;64.59
22069;DHT22;13887;57.196;-2.100;2023-06-22T10:04:20;17.55;64.54
22069;DHT22;13887;57.196;-2.100;2023-06-22T10:06:56;17.59;64.54
22069;DHT22;13887;57.196;-2.100;2023-06-22T10:09:24;17.60;64.91
22069;DHT22;13887;57.196;-2.100;2023-06-22T10:12:00;17.61;65.05
22069;DHT22;13887;57.196;-2.100;2023-06-22T10:14:34;17.63;65.80
22069;DHT22;13887;57.196;-2.100;2023-06-22T10:17:02;17.66;65.66
22069;DHT22;13887;57.196;-2.100;2023-06-22T10:19:35;17.68;65.55
22069;DHT22;13887;57.196;-2.100;2023-06-22T10:22:06;17.68;65.47
22069;DHT22;13887;57.196;-2.100;2023-06-22T10:24:38;17.67;65.45
22069;DHT22;13887;57.196;-2.100;2023-06-22T10:27:15;17.67;65.60
22069;DHT22;13887;57.196;-2.100;2023-06-22T10:29:45;17.67;66.04
22069;DHT22;13887;57.196;-2.100;2023-06-22T10:32:12;17.66;66.23
22069;DHT22;13887;57.196;-2.100;2023-06-22T10:34:45;17.64;66.28
22069;DHT22;13887;57.196;-2.100;2023-06-22T10:37:19;17.64;66.18
22069;DHT22;13887;57.196;-2.100;2023-06-22T10:39:47;17.63;66.24
22069;DHT22;13887;57.196;-2.100;2023-06-22T10:42:17;17.66;66.22
22069;DHT22;13887;57.196;-2.100;2023-06-22T10:44:50;17.67;65.98
22069;DHT22;13887;57.196;-2.100;2023-06-22T10:47:22;17.72;66.00
22069;DHT22;13887;57.196;-2.100;2023-06-22T10:49:52;17.73;65.73
22069;DHT22;13887;57.196;-2.100;2023-06-22T10:52:20;17.74;65.88
22069;DHT22;13887;57.196;-2.100;2023-06-22T10:54:52;17.73;66.11
22069;DHT22;13887;57.196;-2.100;2023-06-22T10:57:19;17.74;66.10
22069;DHT22;13887;57.196;-2.100;2023-06-22T10:59:52;17.76;66.27
22069;DHT22;13887;57.196;-2.100;2023-06-22T11:02:19;17.77;66.18
22069;DHT22;13887;57.196;-2.100;2023-06-22T11:04:49;17.78;66.20
22069;DHT22;13887;57.196;-2.100;2023-06-22T11:07:19;17.79;66.45
22069;DHT22;13887;57.196;-2.100;2023-06-22T11:09:50;17.77;66.54
22069;DHT22;13887;57.196;-2.100;2023-06-22T11:12:19;17.75;66.88
22069;DHT22;13887;57.196;-2.100;2023-06-22T11:14:51;17.79;66.49
22069;DHT22;13887;57.196;-2.100;2023-06-22T11:17:21;17.76;66.58
22069;DHT22;13887;57.196;-2.100;2023-06-22T11:19:52;17.78;66.75
22069;DHT22;13887;57.196;-2.100;2023-06-22T11:22:26;17.78;66.62
22069;DHT22;13887;57.196;-2.100;2023-06-22T11:24:55;17.79;66.62
22069;DHT22;13887;57.196;-2.100;2023-06-22T11:27:35;17.83;66.50
22069;DHT22;13887;57.196;-2.100;2023-06-22T11:30:06;17.89;66.27
22069;DHT22;13887;57.196;-2.100;2023-06-22T11:32:34;17.93;66.00
22069;DHT22;13887;57.196;-2.100;2023-06-22T11:35:05;17.95;65.91
22069;DHT22;13887;57.196;-2.100;2023-06-22T11:37:35;17.97;66.00
22069;DHT22;13887;57.196;-2.100;2023-06-22T11:40:06;17.96;66.11
22069;DHT22;13887;57.196;-2.100;2023-06-22T11:42:42;17.94;66.31
22069;DHT22;13887;57.196;-2.100;2023-06-22T11:45:20;17.93;66.45
22069;DHT22;13887;57.196;-2.100;2023-06-22T11:47:50;17.92;66.29
22069;DHT22;13887;57.196;-2.100;2023-06-22T11:50:19;17.96;66.28
22069;DHT22;13887;57.196;-2.100;2023-06-22T11:52:53;17.95;66.32
22069;DHT22;13887;57.196;-2.100;2023-06-22T11:55:25;17.95;65.92
22069;DHT22;13887;57.196;-2.100;2023-06-22T11:57:56;17.94;66.03
22069;DHT22;13887;57.196;-2.100;2023-06-22T12:00:30;17.95;66.33
22069;DHT22;13887;57.196;-2.100;2023-06-22T12:03:08;17.94;66.24
22069;DHT22;13887;57.196;-2.100;2023-06-22T12:05:36;17.93;65.92
22069;DHT22;13887;57.196;-2.100;2023-06-22T12:08:13;17.93;65.82
22069;DHT22;13887;57.196;-2.100;2023-06-22T12:10:50;17.95;65.87
22069;DHT22;13887;57.196;-2.100;2023-06-22T12:13:17;17.94;65.86
22069;DHT22;13887;57.196;-2.100;2023-06-22T12:15:48;17.96;65.57
22069;DHT22;13887;57.196;-2.100;2023-06-22T12:18:18;17.95;65.15
22069;DHT22;13887;57.196;-2.100;2023-06-22T12:20:48;17.97;65.27
22069;DHT22;13887;57.196;-2.100;2023-06-22T12:23:15;17.99;65.49
22069;DHT22;13887;57.196;-2.100;2023-06-22T12:25:48;18.03;65.48
22069;DHT22;13887;57.196;-2.100;2023-06-22T12:28:15;18.07;65.16
22069;DHT22;13887;57.196;-2.100;2023-06-22T12:30:49;18.07;65.04
22069;DHT22;13887;57.196;-2.100;2023-06-22T12:33:20;18.08;64.93
22069;DHT22;13887;57.196;-2.100;2023-06-22T12:35:50;18.10;64.91
22069;DHT22;13887;57.196;-2.100;2023-06-22T12:38:20;18.12;64.82
22069;DHT22;13887;57.196;-2.100;2023-06-22T12:40:47;18.11;64.98
22069;DHT22;13887;57.196;-2.100;2023-06-22T12:43:20;18.09;64.87
22069;DHT22;13887;57.196;-2.100;2023-06-22T12:45:50;18.09;64.76
22069;DHT22;13887;57.196;-2.100;2023-06-22T12:48:25;18.11;64.82
22069;DHT22;13887;57.196;-2.100;2023-06-22T12:50:55;18.10;64.72
22069;DHT22;13887;57.196;-2.100;2023-06-22T12:53:25;18.08;64.01
22069;DHT22;13887;57.196;-2.100;2023-06-22T12:55:57;18.11;63.74
22069;DHT22;13887;57.196;-2.100;2023-06-22T12:58:31;18.11;63.77
22069;DHT22;13887;57.196;-2.100;2023-06-22T13:00:59;18.13;64.24
22069;DHT22;13887;57.196;-2.100;2023-06-22T13:03:26;18.13;64.78
22069;DHT22;13887;57.196;-2.100;2023-06-22T13:05:57;18.08;65.10
22069;DHT22;13887;57.196;-2.100;2023-06-22T13:08:30;18.08;64.54
22069;DHT22;13887;57.196;-2.100;2023-06-22T13:11:18;18.06;63.60
22069;DHT22;13887;57.196;-2.100;2023-06-22T13:13:51;18.09;63.92
22069;DHT22;13887;57.196;-2.100;2023-06-22T13:16:19;18.10;63.97
22069;DHT22;13887;57.196;-2.100;2023-06-22T13:18:55;18.07;62.95
22069;DHT22;13887;57.196;-2.100;2023-06-22T13:21:25;18.10;63.13
22069;DHT22;13887;57.196;-2.100;2023-06-22T13:23:54;18.08;63.08
22069;DHT22;13887;57.196;-2.100;2023-06-22T13:26:27;18.07;63.34
22069;DHT22;13887;57.196;-2.100;2023-06-22T13:29:02;18.06;63.87
22069;DHT22;13887;57.196;-2.100;2023-06-22T13:31:32;18.04;63.66
22069;DHT22;13887;57.196;-2.100;2023-06-22T13:34:02;18.00;63.25
22069;DHT22;13887;57.196;-2.100;2023-06-22T13:36:32;18.02;63.50
22069;DHT22;13887;57.196;-2.100;2023-06-22T13:39:04;18.04;63.64
22069;DHT22;13887;57.196;-2.100;2023-06-22T13:41:35;18.07;63.89
22069;DHT22;13887;57.196;-2.100;2023-06-22T13:44:03;18.11;63.42
22069;DHT22;13887;57.196;-2.100;2023-06-22T13:46:42;18.11;63.61
22069;DHT22;13887;57.196;-2.100;2023-06-22T13:49:10;18.19;63.71
22069;DHT22;13887;57.196;-2.100;2023-06-22T13:51:40;18.21;63.74
22069;DHT22;13887;57.196;-2.100;2023-06-22T13:54:11;18.24;63.88
22069;DHT22;13887;57.196;-2.100;2023-06-22T13:56:55;18.24;63.48
22069;DHT22;13887;57.196;-2.100;2023-06-22T13:59:24;18.24;63.40
22069;DHT22;13887;57.196;-2.100;2023-06-22T14:01:54;18.23;63.66
22069;DHT22;13887;57.196;-2.100;2023-06-22T14:04:24;18.23;63.47
22069;DHT22;13887;57.196;-2.100;2023-06-22T14:06:51;18.24;63.43
22069;DHT22;13887;57.196;-2.100;2023-06-22T14:09:28;18.21;62.66
22069;DHT22;13887;57.196;-2.100;2023-06-22T14:11:56;18.23;63.53
22069;DHT22;13887;57.196;-2.100;2023-06-22T14:14:24;18.23;63.21
22069;DHT22;13887;57.196;-2.100;2023-06-22T14:16:54;18.24;62.70
22069;DHT22;13887;57.196;-2.100;2023-06-22T14:19:26;18.22;62.87
22069;DHT22;13887;57.196;-2.100;2023-06-22T14:21:54;18.23;63.17
22069;DHT22;13887;57.196;-2.100;2023-06-22T14:24:28;18.24;63.66
22069;DHT22;13887;57.196;-2.100;2023-06-22T14:26:57;18.23;63.07
22069;DHT22;13887;57.196;-2.100;2023-06-22T14:29:32;18.21;62.37
22069;DHT22;13887;57.196;-2.100;2023-06-22T14:32:06;18.20;62.57
22069;DHT22;13887;57.196;-2.100;2023-06-22T14:34:34;18.21;62.76
22069;DHT22;13887;57.196;-2.100;2023-06-22T14:37:07;18.20;62.83
22069;DHT22;13887;57.196;-2.100;2023-06-22T14:39:37;18.23;62.68
22069;DHT22;13887;57.196;-2.100;2023-06-22T14:42:05;18.23;62.27
22069;DHT22;13887;57.196;-2.100;2023-06-22T14:44:35;18.17;63.17
22069;DHT22;13887;57.196;-2.100;2023-06-22T14:47:08;18.14;62.90
22069;DHT22;13887;57.196;-2.100;2023-06-22T14:49:37;18.13;63.00
22069;DHT22;13887;57.196;-2.100;2023-06-22T14:52:13;18.12;62.65
22069;DHT22;13887;57.196;-2.100;2023-06-22T14:54:41;18.12;63.04
22069;DHT22;13887;57.196;-2.100;2023-06-22T14:57:09;18.13;62.76
22069;DHT22;13887;57.196;-2.100;2023-06-22T14:59:40;18.15;62.76
22069;DHT22;13887;57.196;-2.100;2023-06-22T15:02:12;18.18;62.86
22069;DHT22;13887;57.196;-2.100;2023-06-22T15:04:45;18.18;62.74
22069;DHT22;13887;57.196;-2.100;2023-06-22T15:07:13;18.20;63.00
22069;DHT22;13887;57.196;-2.100;2023-06-22T15:09:45;18.18;62.11
22069;DHT22;13887;57.196;-2.100;2023-06-22T15:12:16;18.18;62.74
22069;DHT22;13887;57.196;-2.100;2023-06-22T15:14:52;18.17;62.60
22069;DHT22;13887;57.196;-2.100;2023-06-22T15:17:21;18.17;62.02
22069;DHT22;13887;57.196;-2.100;2023-06-22T15:19:50;18.19;61.99
22069;DHT22;13887;57.196;-2.100;2023-06-22T15:22:18;18.21;62.16
22069;DHT22;13887;57.196;-2.100;2023-06-22T15:24:49;18.22;62.11
22069;DHT22;13887;57.196;-2.100;2023-06-22T15:27:24;18.27;62.18
22069;DHT22;13887;57.196;-2.100;2023-06-22T15:29:54;18.32;61.99
22069;DHT22;13887;57.196;-2.100;2023-06-22T15:32:25;18.33;62.01
22069;DHT22;13887;57.196;-2.100;2023-06-22T15:34:55;18.34;61.32
22069;DHT22;13887;57.196;-2.100;2023-06-22T15:37:27;18.32;61.34
22069;DHT22;13887;57.196;-2.100;2023-06-22T15:39:57;18.26;62.08
22069;DHT22;13887;57.196;-2.100;2023-06-22T15:42:25;18.29;61.70